Time;durP1;ratioP1;P1;durP2;ratioP2;P2;SDS_P1;SDS_P2;PMS_P1;PMS_P2;Temp;Humidity;BMP_temperature;BMP_pressure;BME280_temperature;BME280_humidity;BME280_pressure;Samples;Min_cycle;Max_cycle;Signal;HPM_P1;HPM_P2
2023/11/05 00:02:21;;;;;;;10.00;7.22;;;;;;;;;;5042004;28;20080;-68
2023/11/05 00:04:47;;;;;;;11.88;7.57;;;;;;;;;;5045953;28;20083;-67
2023/11/05 00:07:14;;;;;;;10.50;6.82;;;;;;;;;;5036887;28;20330;-67
2023/11/05 00:09:40;;;;;;;10.70;6.70;;;;;;;;;;5033590;28;20057;-66
2023/11/05 00:12:06;;;;;;;10.10;7.30;;;;;;;;;;5035720;28;20459;-66
2023/11/05 00:14:33;;;;;;;10.65;6.57;;;;;;;;;;5034825;28;20025;-67
2023/11/05 00:17:00;;;;;;;10.85;7.18;;;;;;;;;;5041736;28;20037;-68
2023/11/05 00:19:26;;;;;;;12.80;6.68;;;;;;;;;;5041107;28;20022;-67
2023/11/05 00:21:52;;;;;;;10.93;6.88;;;;;;;;;;5043758;28;20049;-68
2023/11/05 00:24:18;;;;;;;10.98;6.50;;;;;;;;;;5045843;28;20102;-66
2023/11/05 00:26:45;;;;;;;11.77;7.60;;;;;;;;;;5042423;28;20371;-66
2023/11/05 00:29:14;;;;;;;12.85;6.70;;;;;;;;;;5044812;28;20035;-67
2023/11/05 00:31:40;;;;;;;8.30;5.75;;;;;;;;;;5039714;28;20033;-67
2023/11/05 00:34:06;;;;;;;10.98;6.85;;;;;;;;;;5047036;28;20030;-68
2023/11/05 00:36:33;;;;;;;9.35;6.25;;;;;;;;;;5044065;28;20387;-68
2023/11/05 00:38:59;;;;;;;10.48;6.25;;;;;;;;;;5027470;28;20044;-68
2023/11/05 00:41:25;;;;;;;11.35;6.10;;;;;;;;;;5044906;28;20547;-66
2023/11/05 00:43:52;;;;;;;9.35;5.35;;;;;;;;;;5048492;28;20151;-67
2023/11/05 00:46:18;;;;;;;8.43;5.82;;;;;;;;;;5042501;28;20033;-67
2023/11/05 00:48:45;;;;;;;7.65;6.03;;;;;;;;;;5043918;28;20103;-66
2023/11/05 00:51:11;;;;;;;9.27;5.72;;;;;;;;;;5039878;28;20545;-66
2023/11/05 00:53:37;;;;;;;8.10;6.15;;;;;;;;;;5044997;28;20021;-67
2023/11/05 00:56:03;;;;;;;8.68;6.15;;;;;;;;;;5040435;28;20037;-67
2023/11/05 00:58:29;;;;;;;9.00;4.97;;;;;;;;;;5043312;28;20028;-67
2023/11/05 01:00:56;;;;;;;6.45;4.50;;;;;;;;;;5043370;28;20096;-66
2023/11/05 01:03:22;;;;;;;7.95;5.18;;;;;;;;;;5038484;28;20076;-66
2023/11/05 01:05:48;;;;;;;8.43;5.15;;;;;;;;;;5042330;28;20029;-66
2023/11/05 01:08:14;;;;;;;7.60;4.90;;;;;;;;;;5044066;28;20021;-66
2023/11/05 01:10:41;;;;;;;7.25;4.75;;;;;;;;;;5033242;28;20509;-66
2023/11/05 01:13:07;;;;;;;7.18;4.50;;;;;;;;;;5038825;28;20255;-67
2023/11/05 01:15:33;;;;;;;8.75;4.28;;;;;;;;;;5041964;28;20025;-68
2023/11/05 01:17:59;;;;;;;7.20;3.80;;;;;;;;;;5041411;28;20033;-66
2023/11/05 01:20:25;;;;;;;6.57;3.78;;;;;;;;;;5034748;28;20043;-67
2023/11/05 01:22:52;;;;;;;6.20;4.35;;;;;;;;;;5045205;28;20044;-67
2023/11/05 01:25:18;;;;;;;4.95;3.63;;;;;;;;;;5024779;28;20038;-67
2023/11/05 01:27:44;;;;;;;7.13;4.20;;;;;;;;;;5032488;28;20031;-67
2023/11/05 01:30:11;;;;;;;6.65;4.10;;;;;;;;;;5020579;28;20044;-67
2023/11/05 01:32:37;;;;;;;5.38;3.78;;;;;;;;;;5041849;28;20430;-66
2023/11/05 01:35:04;;;;;;;5.97;4.22;;;;;;;;;;5026518;28;20035;-66
2023/11/05 01:37:31;;;;;;;4.60;3.70;;;;;;;;;;5041053;28;20025;-67
2023/11/05 01:39:57;;;;;;;7.95;4.65;;;;;;;;;;5042865;28;20510;-67
2023/11/05 01:42:24;;;;;;;8.02;4.60;;;;;;;;;;5044602;28;20055;-67
2023/11/05 01:44:50;;;;;;;7.72;4.53;;;;;;;;;;5042883;28;20107;-67
2023/11/05 01:47:17;;;;;;;6.72;3.50;;;;;;;;;;5018498;28;20021;-70
2023/11/05 01:49:43;;;;;;;5.40;4.18;;;;;;;;;;5046119;28;20500;-66
2023/11/05 01:52:09;;;;;;;7.82;3.60;;;;;;;;;;5020884;28;20025;-67
2023/11/05 01:54:37;;;;;;;6.70;3.72;;;;;;;;;;5041246;28;20508;-67
2023/11/05 01:57:04;;;;;;;5.95;3.85;;;;;;;;;;5033266;28;20033;-67
2023/11/05 01:59:30;;;;;;;5.82;3.88;;;;;;;;;;5034921;28;20575;-68
2023/11/05 02:01:56;;;;;;;6.03;3.80;;;;;;;;;;5023324;28;20045;-65
2023/11/05 02:04:22;;;;;;;7.68;4.25;;;;;;;;;;5037889;28;20032;-74
2023/11/05 02:06:48;;;;;;;6.80;3.90;;;;;;;;;;5040974;28;20039;-69
2023/11/05 02:09:15;;;;;;;7.78;4.30;;;;;;;;;;5043031;28;20410;-68
2023/11/05 02:11:41;;;;;;;5.57;3.45;;;;;;;;;;5044175;28;20107;-68
2023/11/05 02:14:15;;;;;;;5.57;3.53;;;;;;;;;;5040297;28;20094;-68
2023/11/05 02:16:41;;;;;;;6.40;4.28;;;;;;;;;;5038919;28;20041;-68
2023/11/05 02:19:07;;;;;;;6.15;3.42;;;;;;;;;;5039779;28;20130;-67
2023/11/05 02:21:44;;;;;;;7.57;3.53;;;;;;;;;;5037772;28;20048;-67
2023/11/05 02:24:10;;;;;;;7.22;4.05;;;;;;;;;;5031786;28;20086;-67
2023/11/05 02:26:36;;;;;;;6.32;3.80;;;;;;;;;;5037807;28;20025;-68
2023/11/05 02:29:02;;;;;;;5.57;3.20;;;;;;;;;;5037877;28;20029;-68
2023/11/05 02:31:28;;;;;;;7.57;3.83;;;;;;;;;;5043040;28;20025;-68
2023/11/05 02:33:55;;;;;;;4.20;2.97;;;;;;;;;;5041743;28;20032;-67
2023/11/05 02:36:21;;;;;;;5.50;3.25;;;;;;;;;;5032928;28;20029;-68
2023/11/05 02:38:47;;;;;;;5.57;3.20;;;;;;;;;;5021559;28;20036;-68
2023/11/05 02:41:14;;;;;;;7.32;3.58;;;;;;;;;;5042315;28;20017;-68
2023/11/05 02:43:40;;;;;;;7.40;3.33;;;;;;;;;;5036280;28;20030;-66
2023/11/05 02:46:07;;;;;;;4.47;2.92;;;;;;;;;;5037205;28;20034;-67
2023/11/05 02:48:33;;;;;;;6.43;3.70;;;;;;;;;;5018823;28;20021;-67
2023/11/05 02:51:00;;;;;;;4.47;3.55;;;;;;;;;;5040828;28;20029;-67
2023/11/05 02:53:26;;;;;;;4.20;2.67;;;;;;;;;;5039712;28;20033;-67
2023/11/05 02:55:52;;;;;;;5.50;3.70;;;;;;;;;;5038860;28;20033;-67
2023/11/05 02:58:18;;;;;;;3.92;3.28;;;;;;;;;;5044073;28;20029;-66
2023/11/05 03:00:44;;;;;;;4.55;3.13;;;;;;;;;;5044163;28;20034;-67
2023/11/05 03:03:14;;;;;;;4.72;3.00;;;;;;;;;;5023273;28;20073;-67
2023/11/05 03:05:44;;;;;;;9.55;3.22;;;;;;;;;;5026201;28;20033;-67
2023/11/05 03:08:11;;;;;;;4.30;3.05;;;;;;;;;;5016179;28;20053;-67
2023/11/05 03:10:37;;;;;;;4.43;2.97;;;;;;;;;;5016113;28;21563;-66
2023/11/05 03:13:03;;;;;;;5.70;3.47;;;;;;;;;;5021711;28;20109;-67
2023/11/05 03:15:29;;;;;;;3.78;3.03;;;;;;;;;;5019769;28;20030;-67
2023/11/05 03:17:56;;;;;;;5.28;3.00;;;;;;;;;;5012637;28;20245;-67
2023/11/05 03:20:22;;;;;;;7.28;4.38;;;;;;;;;;5019866;28;20025;-67
2023/11/05 03:22:48;;;;;;;6.32;3.30;;;;;;;;;;5021982;28;20112;-68
2023/11/05 03:25:14;;;;;;;5.95;3.10;;;;;;;;;;5020264;28;20030;-66
2023/11/05 03:27:40;;;;;;;6.10;3.10;;;;;;;;;;5023366;28;20080;-66
2023/11/05 03:30:07;;;;;;;7.78;3.70;;;;;;;;;;5017766;28;20038;-67
2023/11/05 03:32:33;;;;;;;4.93;3.63;;;;;;;;;;5028315;28;20029;-66
2023/11/05 03:34:59;;;;;;;6.65;4.25;;;;;;;;;;5016886;28;20101;-66
2023/11/05 03:37:26;;;;;;;5.05;3.47;;;;;;;;;;5027901;28;20029;-67
2023/11/05 03:39:52;;;;;;;9.48;3.70;;;;;;;;;;5026615;28;20072;-67
2023/11/05 03:42:18;;;;;;;4.38;3.33;;;;;;;;;;5023387;28;20057;-69
2023/11/05 03:44:45;;;;;;;5.07;3.25;;;;;;;;;;5020224;28;20036;-66
2023/11/05 03:47:11;;;;;;;5.25;3.45;;;;;;;;;;5020550;28;20594;-66
2023/11/05 03:49:37;;;;;;;5.25;3.45;;;;;;;;;;5020060;28;20406;-66
2023/11/05 03:52:03;;;;;;;4.68;3.45;;;;;;;;;;5025095;28;20033;-66
2023/11/05 03:54:29;;;;;;;5.05;3.70;;;;;;;;;;5014108;28;20028;-66
2023/11/05 03:56:57;;;;;;;7.35;3.72;;;;;;;;;;5021103;28;20475;-67
2023/11/05 03:59:24;;;;;;;5.70;4.05;;;;;;;;;;5020585;28;20064;-67
2023/11/05 04:01:51;;;;;;;7.05;3.90;;;;;;;;;;5022525;28;20044;-67
2023/11/05 04:04:17;;;;;;;6.47;4.00;;;;;;;;;;5040330;28;20045;-66
2023/11/05 04:06:44;;;;;;;4.65;3.35;;;;;;;;;;5039753;28;20051;-67
2023/11/05 04:09:10;;;;;;;6.60;3.85;;;;;;;;;;5043962;28;21024;-67
2023/11/05 04:11:36;;;;;;;5.72;3.88;;;;;;;;;;5034852;28;20405;-66
2023/11/05 04:14:03;;;;;;;6.32;3.88;;;;;;;;;;5041154;28;20056;-66
2023/11/05 04:16:29;;;;;;;4.22;3.40;;;;;;;;;;5014705;28;20035;-66
2023/11/05 04:18:55;;;;;;;4.68;3.38;;;;;;;;;;5035811;28;20041;-66
2023/11/05 04:21:21;;;;;;;6.90;3.42;;;;;;;;;;5038532;28;20512;-67
2023/11/05 04:23:47;;;;;;;8.35;4.00;;;;;;;;;;5031760;28;20024;-66
2023/11/05 04:26:13;;;;;;;4.35;3.17;;;;;;;;;;5044788;28;20398;-69
2023/11/05 04:28:40;;;;;;;4.03;3.20;;;;;;;;;;5042208;28;20036;-66
2023/11/05 04:31:06;;;;;;;5.05;3.03;;;;;;;;;;5040913;28;20116;-66
2023/11/05 04:33:32;;;;;;;3.83;3.03;;;;;;;;;;5017710;28;20052;-66
2023/11/05 04:35:59;;;;;;;4.18;3.40;;;;;;;;;;5027135;28;20029;-66
2023/11/05 04:38:25;;;;;;;11.38;3.40;;;;;;;;;;5035627;28;20029;-66
2023/11/05 04:40:51;;;;;;;2.90;2.60;;;;;;;;;;5040180;28;20033;-67
2023/11/05 04:43:18;;;;;;;7.50;3.03;;;;;;;;;;5041544;28;20778;-69
2023/11/05 04:45:44;;;;;;;5.13;2.85;;;;;;;;;;5037514;28;20053;-68
2023/11/05 04:48:11;;;;;;;4.25;3.10;;;;;;;;;;5045107;28;20487;-67
2023/11/05 04:50:37;;;;;;;6.43;3.25;;;;;;;;;;5038917;28;20029;-67
2023/11/05 04:53:03;;;;;;;5.22;3.00;;;;;;;;;;5044126;28;20207;-67
2023/11/05 04:55:29;;;;;;;4.45;2.95;;;;;;;;;;5045588;28;20453;-67
2023/11/05 04:57:58;;;;;;;4.32;2.80;;;;;;;;;;5042990;28;20747;-68
2023/11/05 05:00:24;;;;;;;5.50;2.78;;;;;;;;;;5044118;28;20041;-68
2023/11/05 05:02:50;;;;;;;4.60;2.90;;;;;;;;;;5048994;28;20037;-67
2023/11/05 05:05:16;;;;;;;7.20;3.35;;;;;;;;;;5028312;28;20068;-68
2023/11/05 05:07:42;;;;;;;6.63;2.80;;;;;;;;;;5044566;28;20553;-71
2023/11/05 05:10:08;;;;;;;3.92;2.80;;;;;;;;;;5035284;28;20060;-68
2023/11/05 05:12:34;;;;;;;5.05;2.90;;;;;;;;;;5038889;28;20083;-66
2023/11/05 05:15:05;;;;;;;4.43;2.95;;;;;;;;;;5043877;28;20029;-69
2023/11/05 05:17:32;;;;;;;5.82;3.40;;;;;;;;;;5045485;28;20760;-67
2023/11/05 05:19:59;;;;;;;3.47;2.70;;;;;;;;;;5021999;28;20033;-68
2023/11/05 05:22:25;;;;;;;4.32;2.78;;;;;;;;;;5038768;28;20021;-67
2023/11/05 05:24:51;;;;;;;3.50;2.60;;;;;;;;;;5044307;28;20033;-67
2023/11/05 05:27:17;;;;;;;6.13;3.00;;;;;;;;;;5033122;28;20021;-67
2023/11/05 05:29:43;;;;;;;5.03;3.17;;;;;;;;;;5041362;28;20445;-66
2023/11/05 05:32:09;;;;;;;4.22;3.15;;;;;;;;;;5042449;28;20047;-67
2023/11/05 05:34:35;;;;;;;6.55;3.38;;;;;;;;;;5040678;28;20057;-67
2023/11/05 05:37:01;;;;;;;4.18;2.90;;;;;;;;;;5039191;28;20280;-68
2023/11/05 05:39:28;;;;;;;5.15;2.90;;;;;;;;;;5034933;28;20116;-67
2023/11/05 05:41:54;;;;;;;3.85;2.55;;;;;;;;;;5042330;28;20025;-66
2023/11/05 05:44:20;;;;;;;4.50;2.90;;;;;;;;;;5040038;28;20079;-67
2023/11/05 05:46:46;;;;;;;3.60;3.03;;;;;;;;;;5032138;28;20025;-67
2023/11/05 05:49:12;;;;;;;6.25;2.70;;;;;;;;;;5015990;28;20040;-67
2023/11/05 05:51:38;;;;;;;4.85;2.80;;;;;;;;;;5036560;28;20433;-68
2023/11/05 05:54:05;;;;;;;4.05;3.10;;;;;;;;;;5035482;28;20731;-67
2023/11/05 05:56:31;;;;;;;4.13;3.20;;;;;;;;;;5038711;28;20391;-67
2023/11/05 05:58:57;;;;;;;5.30;3.30;;;;;;;;;;5038365;28;20029;-67
2023/11/05 06:01:23;;;;;;;4.55;3.97;;;;;;;;;;5026486;28;20025;-68
2023/11/05 06:03:50;;;;;;;4.78;3.60;;;;;;;;;;5037846;28;20052;-68
2023/11/05 06:06:16;;;;;;;5.82;4.10;;;;;;;;;;5037549;28;20374;-67
2023/11/05 06:08:42;;;;;;;6.53;3.65;;;;;;;;;;5013449;28;20565;-68
2023/11/05 06:11:08;;;;;;;4.53;3.63;;;;;;;;;;5038215;28;20063;-68
2023/11/05 06:13:37;;;;;;;8.25;4.57;;;;;;;;;;5039026;28;20566;-67
2023/11/05 06:16:03;;;;;;;6.95;4.63;;;;;;;;;;5040499;28;20020;-66
2023/11/05 06:18:29;;;;;;;7.47;4.60;;;;;;;;;;5036567;28;20037;-67
2023/11/05 06:20:55;;;;;;;6.10;4.80;;;;;;;;;;5024844;28;20052;-67
2023/11/05 06:23:22;;;;;;;7.03;4.50;;;;;;;;;;5036950;28;20021;-66
2023/11/05 06:25:48;;;;;;;7.03;4.07;;;;;;;;;;5026718;28;20029;-66
2023/11/05 06:28:15;;;;;;;6.57;4.53;;;;;;;;;;5029578;28;20048;-67
2023/11/05 06:30:41;;;;;;;6.45;4.43;;;;;;;;;;5041365;28;20471;-66
2023/11/05 06:33:07;;;;;;;6.25;4.35;;;;;;;;;;5036273;28;20112;-66
2023/11/05 06:35:34;;;;;;;5.38;3.97;;;;;;;;;;5022213;28;20056;-67
2023/11/05 06:38:00;;;;;;;6.13;4.50;;;;;;;;;;5019622;28;20108;-66
2023/11/05 06:40:26;;;;;;;8.00;4.72;;;;;;;;;;5044947;28;20486;-68
2023/11/05 06:42:52;;;;;;;10.05;4.57;;;;;;;;;;5040150;28;20090;-66
2023/11/05 06:45:18;;;;;;;6.82;4.50;;;;;;;;;;5038535;28;20033;-67
2023/11/05 06:47:44;;;;;;;6.13;3.88;;;;;;;;;;5009776;28;20398;-69
2023/11/05 06:50:10;;;;;;;4.60;3.85;;;;;;;;;;5037164;28;20048;-66
2023/11/05 06:52:37;;;;;;;5.80;4.35;;;;;;;;;;5038244;28;20028;-69
2023/11/05 06:55:03;;;;;;;5.68;4.00;;;;;;;;;;5022589;28;20037;-66
2023/11/05 06:57:29;;;;;;;6.07;3.85;;;;;;;;;;5036665;28;20079;-68
2023/11/05 06:59:55;;;;;;;4.45;3.67;;;;;;;;;;5035340;28;20028;-68
2023/11/05 07:02:22;;;;;;;5.75;3.08;;;;;;;;;;5020197;28;20037;-67
2023/11/05 07:04:48;;;;;;;4.95;2.75;;;;;;;;;;5021261;28;20510;-67
2023/11/05 07:07:14;;;;;;;5.95;3.45;;;;;;;;;;5023757;28;20532;-68
2023/11/05 07:09:40;;;;;;;4.65;2.83;;;;;;;;;;5017662;28;20032;-66
2023/11/05 07:12:08;;;;;;;4.53;2.80;;;;;;;;;;5020686;28;20076;-67
2023/11/05 07:14:34;;;;;;;5.60;2.75;;;;;;;;;;5015600;28;20037;-67
2023/11/05 07:17:00;;;;;;;4.50;2.53;;;;;;;;;;5016243;28;20053;-66
2023/11/05 07:19:26;;;;;;;8.73;2.67;;;;;;;;;;5020783;28;20053;-67
2023/11/05 07:21:52;;;;;;;4.13;2.33;;;;;;;;;;5020986;28;20060;-69
2023/11/05 07:24:18;;;;;;;2.65;2.10;;;;;;;;;;5032422;28;20446;-70
2023/11/05 07:26:45;;;;;;;3.47;2.50;;;;;;;;;;5012553;28;20022;-67
2023/11/05 07:29:12;;;;;;;3.78;2.60;;;;;;;;;;5015891;28;20549;-67
2023/11/05 07:31:39;;;;;;;3.13;2.20;;;;;;;;;;5016423;28;20022;-67
2023/11/05 07:34:05;;;;;;;3.17;2.30;;;;;;;;;;5022510;28;20030;-69
2023/11/05 07:36:38;;;;;;;3.03;2.30;;;;;;;;;;5017747;28;20022;-67
2023/11/05 07:39:04;;;;;;;3.22;2.50;;;;;;;;;;5004827;28;20041;-68
2023/11/05 07:41:30;;;;;;;4.13;2.83;;;;;;;;;;5020014;28;20029;-66
2023/11/05 07:43:56;;;;;;;4.32;2.42;;;;;;;;;;5024153;28;20483;-67
2023/11/05 07:46:22;;;;;;;5.80;2.72;;;;;;;;;;5013173;28;20036;-68
2023/11/05 07:48:48;;;;;;;6.07;3.15;;;;;;;;;;5015509;28;20113;-70
2023/11/05 07:51:17;;;;;;;3.72;2.60;;;;;;;;;;5010962;28;20033;-66
2023/11/05 07:53:44;;;;;;;3.25;2.47;;;;;;;;;;5018266;28;20446;-67
2023/11/05 07:56:10;;;;;;;3.83;2.83;;;;;;;;;;5017009;28;20101;-67
2023/11/05 07:58:36;;;;;;;4.05;2.75;;;;;;;;;;5015646;28;20502;-67
2023/11/05 08:01:03;;;;;;;4.07;2.60;;;;;;;;;;5013534;28;20391;-68
2023/11/05 08:03:29;;;;;;;6.30;2.95;;;;;;;;;;5019836;28;20072;-67
2023/11/05 08:05:55;;;;;;;5.82;2.65;;;;;;;;;;5016823;28;20029;-67
2023/11/05 08:08:21;;;;;;;5.18;2.38;;;;;;;;;;5020752;28;20026;-68
2023/11/05 08:10:47;;;;;;;4.32;2.88;;;;;;;;;;5011811;28;20049;-66
2023/11/05 08:13:14;;;;;;;4.20;2.40;;;;;;;;;;5015080;28;20042;-66
2023/11/05 08:15:43;;;;;;;4.57;2.35;;;;;;;;;;5018210;28;20048;-66
2023/11/05 08:18:09;;;;;;;3.47;2.08;;;;;;;;;;5021765;28;20076;-67
2023/11/05 08:20:35;;;;;;;2.70;2.00;;;;;;;;;;5020782;28;20554;-66
2023/11/05 08:23:01;;;;;;;4.32;1.98;;;;;;;;;;5022712;28;20033;-67
2023/11/05 08:25:27;;;;;;;4.55;2.55;;;;;;;;;;5020007;28;20471;-67
2023/11/05 08:27:54;;;;;;;2.03;1.90;;;;;;;;;;5025105;28;20033;-67
2023/11/05 08:30:23;;;;;;;3.40;2.10;;;;;;;;;;5019162;28;20030;-67
2023/11/05 08:32:50;;;;;;;3.72;2.70;;;;;;;;;;5025762;28;20490;-67
2023/11/05 08:35:18;;;;;;;2.50;2.20;;;;;;;;;;5023328;28;20372;-67
2023/11/05 08:37:44;;;;;;;9.35;3.08;;;;;;;;;;5017620;28;20045;-67
2023/11/05 08:40:13;;;;;;;4.68;2.50;;;;;;;;;;5017379;28;20029;-67
2023/11/05 08:42:40;;;;;;;3.17;2.45;;;;;;;;;;5021831;28;20393;-67
2023/11/05 08:45:06;;;;;;;5.60;2.90;;;;;;;;;;5022603;28;20431;-67
2023/11/05 08:47:33;;;;;;;6.80;3.40;;;;;;;;;;5030767;28;20060;-66
2023/11/05 08:49:59;;;;;;;8.13;3.47;;;;;;;;;;5013172;28;20040;-66
2023/11/05 08:52:25;;;;;;;6.13;3.58;;;;;;;;;;5009219;28;20034;-69
2023/11/05 08:54:52;;;;;;;4.18;3.50;;;;;;;;;;5026466;28;20037;-67
2023/11/05 08:57:18;;;;;;;5.40;3.60;;;;;;;;;;5014773;28;20092;-68
2023/11/05 08:59:45;;;;;;;5.25;3.40;;;;;;;;;;5028437;28;20037;-66
2023/11/05 09:02:11;;;;;;;4.80;3.30;;;;;;;;;;5020562;28;20053;-67
2023/11/05 09:04:37;;;;;;;8.30;4.00;;;;;;;;;;5027372;28;20084;-66
2023/11/05 09:07:04;;;;;;;13.27;4.20;;;;;;;;;;5025400;28;20029;-66
2023/11/05 09:09:30;;;;;;;4.07;2.78;;;;;;;;;;5018014;28;20128;-67
2023/11/05 09:11:56;;;;;;;7.22;3.15;;;;;;;;;;5017777;28;20554;-67
2023/11/05 09:14:22;;;;;;;5.57;3.88;;;;;;;;;;5016161;28;20438;-67
2023/11/05 09:16:50;;;;;;;6.63;4.03;;;;;;;;;;5024083;28;20042;-67
2023/11/05 09:19:16;;;;;;;8.38;4.03;;;;;;;;;;5016658;28;20045;-67
2023/11/05 09:21:45;;;;;;;26.00;12.57;;;;;;;;;;5021713;28;20033;-67
2023/11/05 09:24:11;;;;;;;32.38;15.48;;;;;;;;;;5017086;28;20116;-67
2023/11/05 09:26:38;;;;;;;23.52;12.60;;;;;;;;;;5011694;28;20650;-67
2023/11/05 09:29:06;;;;;;;10.32;6.38;;;;;;;;;;5014822;28;20033;-67
2023/11/05 09:31:33;;;;;;;10.43;6.93;;;;;;;;;;5012417;28;20022;-66
2023/11/05 09:33:59;;;;;;;23.80;13.45;;;;;;;;;;5020755;28;20030;-67
2023/11/05 09:36:25;;;;;;;10.63;7.05;;;;;;;;;;5017019;28;20029;-67
2023/11/05 09:38:52;;;;;;;7.15;5.45;;;;;;;;;;5018781;28;20033;-67
2023/11/05 09:41:19;;;;;;;8.60;5.25;;;;;;;;;;5015756;28;20510;-67
2023/11/05 09:43:49;;;;;;;6.10;4.07;;;;;;;;;;5018547;28;20036;-67
2023/11/05 09:46:15;;;;;;;6.18;4.15;;;;;;;;;;5004328;28;20108;-67
2023/11/05 09:48:41;;;;;;;7.45;4.13;;;;;;;;;;5014655;28;20525;-66
2023/11/05 09:51:11;;;;;;;8.43;5.65;;;;;;;;;;5017625;28;20556;-67
2023/11/05 09:53:37;;;;;;;7.55;4.97;;;;;;;;;;5010800;28;20153;-67
2023/11/05 09:56:04;;;;;;;6.78;5.10;;;;;;;;;;5019810;28;20494;-67
2023/11/05 09:58:30;;;;;;;7.88;4.40;;;;;;;;;;5013010;28;20826;-67
2023/11/05 10:00:57;;;;;;;4.10;3.10;;;;;;;;;;5016146;28;20127;-67
2023/11/05 10:03:26;;;;;;;4.80;3.40;;;;;;;;;;5027156;28;20100;-67
2023/11/05 10:05:55;;;;;;;4.40;2.60;;;;;;;;;;5015760;28;20025;-68
2023/11/05 10:08:22;;;;;;;3.72;2.75;;;;;;;;;;5014224;28;20033;-67
2023/11/05 10:10:49;;;;;;;2.55;2.20;;;;;;;;;;5011380;28;20043;-68
2023/11/05 10:13:16;;;;;;;2.25;1.88;;;;;;;;;;5011371;28;20044;-66
2023/11/05 10:15:42;;;;;;;5.63;2.03;;;;;;;;;;5014590;28;20155;-67
2023/11/05 10:18:18;;;;;;;2.35;1.90;;;;;;;;;;5014890;28;20038;-67
2023/11/05 10:20:51;;;;;;;3.47;2.20;;;;;;;;;;5011114;28;20593;-66
2023/11/05 10:23:17;;;;;;;1.88;1.77;;;;;;;;;;5015404;28;20148;-68
2023/11/05 10:25:47;;;;;;;2.60;1.90;;;;;;;;;;5014894;28;20030;-66
2023/11/05 10:28:13;;;;;;;2.08;1.88;;;;;;;;;;5027851;28;20055;-68
2023/11/05 10:30:45;;;;;;;2.60;2.20;;;;;;;;;;5024525;28;20141;-68
2023/11/05 10:33:13;;;;;;;3.00;2.45;;;;;;;;;;5015172;28;20048;-68
2023/11/05 10:35:40;;;;;;;1.83;1.70;;;;;;;;;;5014205;28;20406;-68
2023/11/05 10:38:10;;;;;;;2.53;1.98;;;;;;;;;;5015923;28;20087;-65
2023/11/05 10:40:38;;;;;;;2.40;2.00;;;;;;;;;;5015030;28;20037;-68
2023/11/05 10:43:04;;;;;;;2.33;1.85;;;;;;;;;;5015374;28;20037;-68
2023/11/05 10:45:31;;;;;;;3.67;1.83;;;;;;;;;;5015376;28;20423;-69
2023/11/05 10:47:58;;;;;;;3.00;1.80;;;;;;;;;;5017626;28;20048;-68
2023/11/05 10:50:25;;;;;;;2.33;1.63;;;;;;;;;;5015232;28;20053;-70
2023/11/05 10:52:54;;;;;;;6.15;2.00;;;;;;;;;;5018206;28;20391;-68
2023/11/05 10:55:29;;;;;;;4.13;2.70;;;;;;;;;;5015558;28;20112;-69
2023/11/05 10:57:55;;;;;;;3.75;2.47;;;;;;;;;;5017483;28;20040;-68
2023/11/05 11:00:27;;;;;;;2.25;1.98;;;;;;;;;;5016727;28;20063;-68
2023/11/05 11:02:59;;;;;;;3.50;2.20;;;;;;;;;;5025417;28;20052;-67
2023/11/05 11:05:41;;;;;;;4.07;2.80;;;;;;;;;;5038159;28;20036;-69
2023/11/05 11:08:09;;;;;;;4.18;2.67;;;;;;;;;;5019340;28;20683;-67
2023/11/05 11:10:38;;;;;;;3.33;2.28;;;;;;;;;;5039537;28;20500;-68
2023/11/05 11:13:12;;;;;;;3.80;2.65;;;;;;;;;;5035434;28;20064;-66
2023/11/05 11:15:41;;;;;;;5.63;2.35;;;;;;;;;;5040508;28;20387;-68
2023/11/05 11:18:21;;;;;;;7.53;4.40;;;;;;;;;;5036978;28;20311;-71
2023/11/05 11:20:48;;;;;;;4.13;2.47;;;;;;;;;;5032794;28;20033;-67
2023/11/05 11:23:17;;;;;;;3.08;2.50;;;;;;;;;;5000807;28;20773;-66
2023/11/05 11:25:59;;;;;;;5.07;2.33;;;;;;;;;;5038756;28;20036;-67
2023/11/05 11:28:29;;;;;;;4.07;2.22;;;;;;;;;;5039479;28;20036;-67
2023/11/05 11:30:55;;;;;;;2.20;1.90;;;;;;;;;;5040181;28;20043;-67
2023/11/05 11:33:22;;;;;;;6.95;2.50;;;;;;;;;;5038198;28;20091;-68
2023/11/05 11:35:49;;;;;;;2.30;2.08;;;;;;;;;;5039543;28;20094;-67
2023/11/05 11:38:16;;;;;;;5.65;2.40;;;;;;;;;;5017003;28;20025;-68
2023/11/05 11:40:43;;;;;;;3.88;2.70;;;;;;;;;;5024055;28;20052;-69
2023/11/05 11:43:09;;;;;;;3.00;2.05;;;;;;;;;;5023565;28;20040;-67
2023/11/05 11:45:36;;;;;;;2.47;2.17;;;;;;;;;;5030086;28;20103;-67
2023/11/05 11:48:07;;;;;;;4.05;1.80;;;;;;;;;;5037305;28;20067;-67
2023/11/05 11:50:33;;;;;;;2.03;1.88;;;;;;;;;;5037892;28;20536;-67
2023/11/05 11:52:59;;;;;;;5.82;2.60;;;;;;;;;;5037329;28;20307;-67
2023/11/05 11:55:25;;;;;;;1.83;1.60;;;;;;;;;;5038265;28;20525;-67
2023/11/05 11:57:52;;;;;;;2.15;1.83;;;;;;;;;;5039132;28;20039;-68
2023/11/05 12:00:20;;;;;;;2.08;1.80;;;;;;;;;;5038976;28;20060;-68
2023/11/05 12:02:50;;;;;;;3.40;1.90;;;;;;;;;;5038986;28;20506;-68
2023/11/05 12:05:17;;;;;;;4.18;1.88;;;;;;;;;;5040483;28;20031;-68
2023/11/05 12:07:44;;;;;;;2.45;1.77;;;;;;;;;;5022106;28;20025;-67
2023/11/05 12:10:13;;;;;;;4.85;2.28;;;;;;;;;;5037260;28;20055;-67
2023/11/05 12:12:42;;;;;;;2.38;2.10;;;;;;;;;;5039322;28;20626;-68
2023/11/05 12:15:12;;;;;;;2.30;1.90;;;;;;;;;;5038899;28;20036;-67
2023/11/05 12:17:38;;;;;;;3.30;2.15;;;;;;;;;;5037469;28;20029;-67
2023/11/05 12:20:05;;;;;;;2.05;1.77;;;;;;;;;;5039674;28;20946;-68
2023/11/05 12:22:31;;;;;;;1.75;1.65;;;;;;;;;;5036515;28;20067;-68
2023/11/05 12:25:09;;;;;;;3.92;3.15;;;;;;;;;;5041406;28;20029;-67
2023/11/05 12:27:35;;;;;;;2.45;2.10;;;;;;;;;;5037540;28;20036;-67
2023/11/05 12:30:07;;;;;;;3.20;2.13;;;;;;;;;;5041409;28;20029;-66
2023/11/05 12:32:34;;;;;;;3.38;2.20;;;;;;;;;;5033007;28;20020;-67
2023/11/05 12:35:06;;;;;;;2.97;1.67;;;;;;;;;;5038734;28;20029;-66
2023/11/05 12:37:33;;;;;;;2.72;1.80;;;;;;;;;;5039433;28;20032;-67
2023/11/05 12:39:59;;;;;;;3.60;1.83;;;;;;;;;;5039382;28;20633;-67
2023/11/05 12:42:25;;;;;;;2.25;1.73;;;;;;;;;;5042617;28;20053;-67
2023/11/05 12:44:51;;;;;;;3.03;1.65;;;;;;;;;;5037898;28;20384;-67
2023/11/05 12:47:17;;;;;;;3.53;1.80;;;;;;;;;;5033775;28;20025;-67
2023/11/05 12:49:44;;;;;;;2.20;1.73;;;;;;;;;;5025405;28;20037;-67
2023/11/05 12:52:10;;;;;;;3.38;1.70;;;;;;;;;;5038110;28;20032;-67
2023/11/05 12:54:36;;;;;;;4.75;1.70;;;;;;;;;;5042512;28;20025;-66
2023/11/05 12:57:03;;;;;;;3.25;1.80;;;;;;;;;;5038579;28;20057;-65
2023/11/05 12:59:29;;;;;;;1.88;1.77;;;;;;;;;;5033863;28;20044;-66
2023/11/05 13:01:55;;;;;;;2.83;2.20;;;;;;;;;;5043973;28;20059;-66
2023/11/05 13:04:22;;;;;;;1.70;1.60;;;;;;;;;;5041096;28;20474;-66
2023/11/05 13:06:49;;;;;;;7.18;2.70;;;;;;;;;;5025209;28;20029;-67
2023/11/05 13:09:16;;;;;;;2.28;2.08;;;;;;;;;;5038459;28;20390;-67
2023/11/05 13:11:43;;;;;;;4.32;1.80;;;;;;;;;;5039765;28;20557;-66
2023/11/05 13:14:09;;;;;;;2.70;1.80;;;;;;;;;;5033900;28;20055;-66
2023/11/05 13:16:35;;;;;;;2.40;1.50;;;;;;;;;;5037698;28;20025;-66
2023/11/05 13:19:03;;;;;;;3.85;1.77;;;;;;;;;;5045617;28;20100;-66
2023/11/05 13:21:29;;;;;;;5.47;2.72;;;;;;;;;;5038853;28;20394;-66
2023/11/05 13:23:55;;;;;;;2.53;1.80;;;;;;;;;;5011986;28;20021;-66
2023/11/05 13:26:21;;;;;;;1.63;1.52;;;;;;;;;;5035930;28;20032;-66
2023/11/05 13:28:47;;;;;;;5.70;2.63;;;;;;;;;;5037879;28;20067;-66
2023/11/05 13:31:13;;;;;;;7.05;4.57;;;;;;;;;;5040540;28;20033;-65
2023/11/05 13:33:40;;;;;;;4.38;2.83;;;;;;;;;;5040808;28;20540;-66
2023/11/05 13:36:07;;;;;;;2.92;1.90;;;;;;;;;;5022008;28;20377;-66
2023/11/05 13:38:35;;;;;;;3.83;2.28;;;;;;;;;;5039148;28;20027;-65
2023/11/05 13:41:03;;;;;;;2.47;1.80;;;;;;;;;;5037558;28;20044;-65
2023/11/05 13:43:29;;;;;;;1.95;1.80;;;;;;;;;;5041966;28;20032;-65
2023/11/05 13:45:56;;;;;;;2.95;2.17;;;;;;;;;;5042150;28;20036;-66
2023/11/05 13:48:22;;;;;;;5.35;2.10;;;;;;;;;;5038871;28;20021;-65
2023/11/05 13:50:48;;;;;;;2.83;2.00;;;;;;;;;;5039188;28;20029;-66
2023/11/05 13:53:14;;;;;;;4.97;2.15;;;;;;;;;;5038973;28;20994;-65
2023/11/05 13:55:40;;;;;;;5.10;3.47;;;;;;;;;;5034378;28;20025;-67
2023/11/05 13:58:07;;;;;;;3.13;2.40;;;;;;;;;;5038126;28;20024;-66
2023/11/05 14:00:33;;;;;;;3.00;1.80;;;;;;;;;;5040324;28;20029;-66
2023/11/05 14:02:59;;;;;;;2.95;2.10;;;;;;;;;;5037650;28;20130;-67
2023/11/05 14:05:25;;;;;;;1.85;1.65;;;;;;;;;;5038110;28;20065;-67
2023/11/05 14:07:52;;;;;;;3.63;1.88;;;;;;;;;;5044410;28;20456;-66
2023/11/05 14:10:18;;;;;;;3.25;2.10;;;;;;;;;;5042963;28;20359;-66
2023/11/05 14:12:44;;;;;;;5.95;2.10;;;;;;;;;;5040132;28;20032;-67
2023/11/05 14:15:10;;;;;;;2.20;1.70;;;;;;;;;;5045021;28;20510;-66
2023/11/05 14:17:36;;;;;;;3.30;2.30;;;;;;;;;;5033115;28;20024;-66
2023/11/05 14:20:08;;;;;;;5.90;2.78;;;;;;;;;;5017714;28;20124;-66
2023/11/05 14:22:35;;;;;;;4.90;3.22;;;;;;;;;;5033324;28;20513;-66
2023/11/05 14:25:01;;;;;;;12.20;6.60;;;;;;;;;;5036438;28;20090;-65
2023/11/05 14:27:27;;;;;;;4.63;2.53;;;;;;;;;;5036282;28;20029;-65
2023/11/05 14:29:57;;;;;;;2.10;1.90;;;;;;;;;;5031745;28;20498;-67
2023/11/05 14:32:23;;;;;;;5.10;4.60;;;;;;;;;;5038800;28;20348;-65
2023/11/05 14:34:49;;;;;;;5.60;3.55;;;;;;;;;;5033040;28;20485;-65
2023/11/05 14:37:16;;;;;;;6.55;4.40;;;;;;;;;;5042339;28;20530;-72
2023/11/05 14:39:44;;;;;;;2.20;1.88;;;;;;;;;;5040014;28;20037;-65
2023/11/05 14:42:11;;;;;;;5.35;2.08;;;;;;;;;;5022682;28;20033;-69